createdAt,value
2023-03-25T00:01:26.111Z,98443.47
2023-03-25T00:03:55.210Z,98453.78
2023-03-25T00:06:23.642Z,98447.72
2023-03-25T00:08:52.134Z,98436.50
2023-03-25T00:11:20.614Z,98434.84
2023-03-25T00:13:50.861Z,98437.97
2023-03-25T00:16:20.189Z,98435.53
2023-03-25T00:18:50.023Z,98425.56
2023-03-25T00:21:18.993Z,98441.38
2023-03-25T00:23:47.617Z,98427.50
2023-03-25T00:26:16.450Z,98456.41
2023-03-25T00:28:44.862Z,98462.31
2023-03-25T00:31:16.278Z,98475.34
2023-03-25T00:33:44.789Z,98477.78
2023-03-25T00:36:15.088Z,98473.06
2023-03-25T00:38:45.618Z,98466.22
2023-03-25T00:41:23.374Z,98474.06
2023-03-25T00:43:55.511Z,98476.81
2023-03-25T00:46:27.924Z,98473.09
2023-03-25T00:48:56.725Z,98469.16
2023-03-25T00:51:25.974Z,98467.84
2023-03-25T00:53:56.928Z,98469.00
2023-03-25T00:56:26.011Z,98466.22
2023-03-25T00:58:54.541Z,98459.84
2023-03-25T01:01:28.690Z,98463.75
2023-03-25T01:03:59.316Z,98462.63
2023-03-25T01:06:30.496Z,98447.94
2023-03-25T01:09:00.476Z,98451.53
2023-03-25T01:11:31.210Z,98446.00
2023-03-25T01:14:00.768Z,98453.81
2023-03-25T01:16:31.063Z,98445.03
2023-03-25T01:18:59.543Z,98452.19
2023-03-25T01:21:28.150Z,98452.19
2023-03-25T01:23:56.596Z,98454.66
2023-03-25T01:26:24.966Z,98456.25
2023-03-25T01:28:54.025Z,98459.03
2023-03-25T01:31:23.510Z,98468.19
2023-03-25T01:33:53.327Z,98452.66
2023-03-25T01:36:24.670Z,98452.66
2023-03-25T01:38:53.204Z,98454.31
2023-03-25T01:41:21.742Z,98456.59
2023-03-25T01:44:08.361Z,98472.91
2023-03-25T01:46:38.912Z,98460.19
2023-03-25T01:49:13.975Z,98462.13
2023-03-25T01:51:46.818Z,98460.53
2023-03-25T01:54:18.017Z,98458.88
2023-03-25T01:56:50.783Z,98481.88
2023-03-25T01:59:21.152Z,98486.31
2023-03-25T02:01:51.515Z,98491.19
2023-03-25T02:04:34.929Z,98500.66
2023-03-25T02:07:04.199Z,98498.53
2023-03-25T02:09:32.665Z,98501.00
2023-03-25T02:12:01.223Z,98500.16
2023-03-25T02:14:35.543Z,98507.34
2023-03-25T02:17:16.055Z,98492.97
2023-03-25T02:20:33.547Z,98487.63
2023-03-25T02:23:42.296Z,98488.03
2023-03-25T02:26:50.095Z,98482.34
2023-03-25T02:29:38.429Z,98497.34
2023-03-25T02:32:26.550Z,98504.38
2023-03-25T02:35:25.184Z,98491.31
2023-03-25T02:38:28.081Z,98484.16
2023-03-25T02:40:59.694Z,98454.28
2023-03-25T02:43:33.975Z,98463.25
2023-03-25T02:46:08.987Z,98475.03
2023-03-25T02:48:42.214Z,98458.69
2023-03-25T02:51:16.658Z,98469.00
2023-03-25T02:53:51.197Z,98478.44
2023-03-25T02:56:25.630Z,98469.28
2023-03-25T02:58:56.694Z,98469.28
2023-03-25T03:01:26.968Z,98479.56
2023-03-25T03:03:55.828Z,98473.72
2023-03-25T03:06:26.145Z,98460.16
2023-03-25T03:09:19.007Z,98465.53
2023-03-25T03:11:58.649Z,98466.66
2023-03-25T03:14:44.691Z,98479.56
2023-03-25T03:17:22.168Z,98485.75
2023-03-25T03:19:56.484Z,98478.59
2023-03-25T03:22:42.572Z,98489.50
2023-03-25T03:25:23.929Z,98492.94
2023-03-25T03:27:58.399Z,98491.28
2023-03-25T03:30:33.670Z,98490.78
2023-03-25T03:33:10.078Z,98497.47
2023-03-25T03:35:44.290Z,98493.91
2023-03-25T03:38:16.417Z,98506.94
2023-03-25T03:40:52.412Z,98500.91
2023-03-25T03:43:28.439Z,98516.72
2023-03-25T03:46:02.755Z,98515.88
2023-03-25T03:48:40.394Z,98510.69
2023-03-25T03:51:16.534Z,98522.09
2023-03-25T03:53:52.079Z,98520.44
2023-03-25T03:56:27.255Z,98520.44
2023-03-25T03:58:59.568Z,98512.47
2023-03-25T04:01:38.117Z,98514.75
2023-03-25T04:04:11.765Z,98523.38
2023-03-25T04:06:44.115Z,98520.94
2023-03-25T04:09:27.112Z,98524.31
2023-03-25T04:12:02.074Z,98523.84
2023-03-25T04:14:30.802Z,98519.75
2023-03-25T04:16:59.814Z,98514.53
2023-03-25T04:19:28.430Z,98522.38
2023-03-25T04:21:56.826Z,98533.75
2023-03-25T04:24:26.713Z,98532.13
2023-03-25T04:26:57.693Z,98538.31
2023-03-25T04:29:26.329Z,98546.13
2023-03-25T04:31:56.357Z,98545.63
2023-03-25T04:34:27.230Z,98542.38
2023-03-25T04:36:58.376Z,98537.13
2023-03-25T04:39:29.805Z,98533.03
2023-03-25T04:42:01.924Z,98537.28
2023-03-25T04:44:33.761Z,98536.75
2023-03-25T04:47:04.057Z,98542.63
2023-03-25T04:49:32.638Z,98546.53
2023-03-25T04:52:04.310Z,98543.22
2023-03-25T04:54:32.811Z,98545.22
2023-03-25T04:57:02.646Z,98547.16
2023-03-25T04:59:31.070Z,98560.19
2023-03-25T05:01:59.485Z,98556.59
2023-03-25T05:04:27.965Z,98573.53
2023-03-25T05:06:57.033Z,98577.13
2023-03-25T05:09:25.565Z,98571.88
2023-03-25T05:11:56.049Z,98579.69
2023-03-25T05:14:26.041Z,98589.94
2023-03-25T05:16:55.845Z,98579.19
2023-03-25T05:19:24.550Z,98582.78
2023-03-25T05:21:52.988Z,98577.25
2023-03-25T05:24:21.467Z,98580.34
2023-03-25T05:26:49.882Z,98574.81
2023-03-25T05:29:19.274Z,98571.72
2023-03-25T05:31:49.559Z,98573.31
2023-03-25T05:34:18.049Z,98565.53
2023-03-25T05:36:47.768Z,98565.22
2023-03-25T05:39:16.426Z,98568.47
2023-03-25T05:41:45.701Z,98565.13
2023-03-25T05:44:15.541Z,98555.66
2023-03-25T05:46:44.219Z,98559.75
2023-03-25T05:49:14.124Z,98563.84
2023-03-25T05:51:45.176Z,98564.81
2023-03-25T05:54:13.717Z,98570.84
2023-03-25T05:56:42.863Z,98573.00
2023-03-25T05:59:11.452Z,98567.13
2023-03-25T06:01:42.002Z,98593.06
2023-03-25T06:04:13.072Z,98586.88
2023-03-25T06:06:42.945Z,98572.06
2023-03-25T06:09:11.892Z,98584.16
2023-03-25T06:11:40.330Z,98583.50
2023-03-25T06:14:09.340Z,98597.88
2023-03-25T06:16:37.862Z,98605.84
2023-03-25T06:19:06.284Z,98592.81
2023-03-25T06:21:35.592Z,98616.31
2023-03-25T06:24:06.070Z,98616.81
2023-03-25T06:26:34.539Z,98615.34
2023-03-25T06:29:04.260Z,98611.09
2023-03-25T06:31:34.498Z,98619.09
2023-03-25T06:34:03.251Z,98607.19
2023-03-25T06:36:31.839Z,98621.88
2023-03-25T06:39:00.268Z,98635.41
2023-03-25T06:41:30.010Z,98630.34
2023-03-25T06:43:58.544Z,98625.63
2023-03-25T06:46:27.024Z,98622.03
2023-03-25T06:48:55.516Z,98609.00
2023-03-25T06:51:24.055Z,98615.38
2023-03-25T06:53:52.651Z,98608.19
2023-03-25T06:56:21.043Z,98599.88
2023-03-25T06:58:51.046Z,98593.00
2023-03-25T07:01:19.638Z,98592.03
2023-03-25T07:03:48.080Z,98585.16
2023-03-25T07:06:19.331Z,98590.22
2023-03-25T07:08:48.307Z,98577.69
2023-03-25T07:11:20.529Z,98576.56
2023-03-25T07:13:53.868Z,98579.81
2023-03-25T07:16:22.614Z,98574.44
2023-03-25T07:18:52.082Z,98565.47
2023-03-25T07:21:20.876Z,98584.75
2023-03-25T07:23:49.364Z,98584.25
2023-03-25T07:26:18.403Z,98582.81
2023-03-25T07:28:48.024Z,98577.25
2023-03-25T07:31:18.530Z,98577.25
2023-03-25T07:33:47.210Z,98575.63
2023-03-25T07:36:15.760Z,98571.22
2023-03-25T07:38:44.312Z,98580.84
2023-03-25T07:41:15.528Z,98573.34
2023-03-25T07:43:46.071Z,98561.28
2023-03-25T07:46:14.629Z,98552.81
2023-03-25T07:48:44.418Z,98554.59
2023-03-25T07:51:12.955Z,98549.28
2023-03-25T07:53:44.713Z,98536.72
2023-03-25T07:56:14.249Z,98548.63
2023-03-25T07:58:44.428Z,98549.13
2023-03-25T08:01:13.298Z,98558.41
2023-03-25T08:03:43.271Z,98538.16
2023-03-25T08:06:11.835Z,98539.28
2023-03-25T08:08:40.402Z,98542.88
2023-03-25T08:11:09.342Z,98541.75
2023-03-25T08:13:37.861Z,98543.69
2023-03-25T08:16:13.123Z,98546.81
2023-03-25T08:18:45.265Z,98542.06
2023-03-25T08:21:14.352Z,98539.75
2023-03-25T08:23:44.662Z,98554.94
2023-03-25T08:26:13.110Z,98564.44
2023-03-25T08:28:41.549Z,98561.31
2023-03-25T08:31:10.275Z,98575.19
2023-03-25T08:33:41.305Z,98567.84
2023-03-25T08:36:19.756Z,98570.31
2023-03-25T08:38:48.227Z,98581.91
2023-03-25T08:41:16.933Z,98577.66
2023-03-25T08:43:45.809Z,98579.09
2023-03-25T08:46:14.418Z,98583.03
2023-03-25T08:48:43.992Z,98580.88
2023-03-25T08:51:13.828Z,98575.66
2023-03-25T08:53:42.263Z,98573.84
2023-03-25T08:56:12.291Z,98570.94
2023-03-25T08:58:40.960Z,98574.03
2023-03-25T09:01:09.532Z,98585.31
2023-03-25T09:03:38.683Z,98570.13
2023-03-25T09:06:08.576Z,98582.66
2023-03-25T09:08:38.694Z,98594.09
2023-03-25T09:11:08.056Z,98586.88
2023-03-25T09:13:36.477Z,98600.13
2023-03-25T09:16:05.084Z,98596.69
2023-03-25T09:18:33.516Z,98596.97
2023-03-25T09:21:02.285Z,98584.19
2023-03-25T09:23:30.783Z,98587.75
2023-03-25T09:26:05.329Z,98580.88
2023-03-25T09:28:34.224Z,98574.09
2023-03-25T09:31:02.714Z,98576.84
2023-03-25T09:33:31.256Z,98587.59
2023-03-25T09:36:00.194Z,98570.72
2023-03-25T09:38:28.937Z,98576.44
2023-03-25T09:40:57.698Z,98584.25
2023-03-25T09:43:39.736Z,98586.69
2023-03-25T09:46:09.345Z,98580.94
2023-03-25T09:48:41.291Z,98590.44
2023-03-25T09:51:16.998Z,98578.97
2023-03-25T09:53:51.724Z,98586.31
2023-03-25T09:56:24.241Z,98586.31
2023-03-25T09:58:59.412Z,98585.13
2023-03-25T10:01:41.650Z,98577.97
2023-03-25T10:04:43.743Z,98579.28
2023-03-25T10:07:31.155Z,98582.63
2023-03-25T10:10:08.738Z,98590.19
2023-03-25T10:12:47.713Z,98573.53
2023-03-25T10:15:32.137Z,98572.25
2023-03-25T10:18:36.416Z,98572.72
2023-03-25T10:21:15.346Z,98573.50
2023-03-25T10:23:49.710Z,98572.78
2023-03-25T10:26:26.515Z,98572.41
2023-03-25T10:29:02.504Z,98568.13
2023-03-25T10:31:40.348Z,98549.13
2023-03-25T10:34:15.724Z,98581.63
2023-03-25T10:36:49.355Z,98565.81
2023-03-25T10:39:21.595Z,98579.72
2023-03-25T10:41:57.962Z,98577.44
2023-03-25T10:44:29.014Z,98593.56
2023-03-25T10:47:06.198Z,98584.09
2023-03-25T10:49:37.134Z,98596.28
2023-03-25T10:52:06.303Z,98602.13
2023-03-25T10:54:40.756Z,98600.31
2023-03-25T10:57:12.931Z,98610.09
2023-03-25T10:59:47.360Z,98603.03
2023-03-25T11:02:22.599Z,98610.84
2023-03-25T11:04:57.048Z,98613.56
2023-03-25T11:07:33.159Z,98607.59
2023-03-25T11:10:19.769Z,98598.22
2023-03-25T11:12:51.623Z,98623.53
2023-03-25T11:15:23.823Z,98622.88
2023-03-25T11:18:03.349Z,98618.91
2023-03-25T11:20:41.962Z,98618.81
2023-03-25T11:23:23.220Z,98622.31
2023-03-25T11:25:52.282Z,98600.28
2023-03-25T11:28:27.632Z,98605.19
2023-03-25T11:31:17.656Z,98599.38
2023-03-25T11:34:01.478Z,98585.47
2023-03-25T11:36:32.157Z,98594.13
2023-03-25T11:39:04.456Z,98597.72
2023-03-25T11:41:36.745Z,98586.47
2023-03-25T11:44:07.002Z,98586.56
2023-03-25T11:46:42.583Z,98577.69
2023-03-25T11:49:19.580Z,98573.75
2023-03-25T11:51:48.191Z,98566.13
2023-03-25T11:54:19.246Z,98556.53
2023-03-25T11:56:51.114Z,98556.06
2023-03-25T11:59:25.272Z,98539.38
2023-03-25T12:02:02.936Z,98545.06
2023-03-25T12:04:32.766Z,98537.66
2023-03-25T12:07:03.565Z,98543.97
2023-03-25T12:09:33.237Z,98537.97
2023-03-25T12:12:42.016Z,98536.44
2023-03-25T12:15:24.142Z,98533.25
2023-03-25T12:18:07.655Z,98537.44
2023-03-25T12:20:52.234Z,98535.72
2023-03-25T12:23:32.752Z,98531.31
2023-03-25T12:26:11.858Z,98529.00
2023-03-25T12:29:14.272Z,98535.19
2023-03-25T12:31:58.537Z,98529.25
2023-03-25T12:34:40.799Z,98526.69
2023-03-25T12:37:26.480Z,98522.97
2023-03-25T12:40:29.837Z,98507.06
2023-03-25T12:43:13.010Z,98516.91
2023-03-25T12:46:04.000Z,98504.94
2023-03-25T12:48:52.737Z,98501.25
2023-03-25T12:51:35.921Z,98493.25
2023-03-25T12:54:25.005Z,98496.19
2023-03-25T12:57:08.412Z,98483.38
2023-03-25T13:00:01.281Z,98490.56
2023-03-25T13:02:58.575Z,98483.53
2023-03-25T13:05:34.775Z,98479.50
2023-03-25T13:08:07.924Z,98475.81
2023-03-25T13:10:41.339Z,98460.75
2023-03-25T13:13:16.235Z,98465.25
2023-03-25T13:15:50.763Z,98459.47
2023-03-25T13:18:26.202Z,98465.47
2023-03-25T13:21:11.632Z,98462.06
2023-03-25T13:23:44.627Z,98458.34
2023-03-25T13:26:15.483Z,98460.13
2023-03-25T13:28:48.036Z,98463.59
2023-03-25T13:31:22.234Z,98452.28
2023-03-25T13:33:58.285Z,98457.50
2023-03-25T13:36:33.289Z,98450.50
2023-03-25T13:39:12.144Z,98450.63
2023-03-25T13:41:45.930Z,98440.63
2023-03-25T13:44:21.630Z,98433.94
2023-03-25T13:46:56.112Z,98441.34
2023-03-25T13:49:31.483Z,98445.72
2023-03-25T13:52:00.584Z,98442.19
2023-03-25T13:54:36.501Z,98437.16
2023-03-25T13:57:36.743Z,98441.06
2023-03-25T14:00:39.618Z,98424.19
2023-03-25T14:03:39.201Z,98420.59
2023-03-25T14:06:45.753Z,98413.44
2023-03-25T14:10:10.628Z,98418.44
2023-03-25T14:12:42.721Z,98423.94
2023-03-25T14:15:17.106Z,98421.00
2023-03-25T14:17:47.268Z,98418.63
2023-03-25T14:20:25.517Z,98423.69
2023-03-25T14:22:59.501Z,98427.94
2023-03-25T14:25:39.815Z,98430.63
2023-03-25T14:28:10.396Z,98424.38
2023-03-25T14:30:40.116Z,98426.50
2023-03-25T14:33:13.022Z,98437.31
2023-03-25T14:36:00.853Z,98429.97
2023-03-25T14:38:54.911Z,98432.22
2023-03-25T14:41:58.816Z,98426.34
2023-03-25T14:44:32.912Z,98424.69
2023-03-25T14:47:25.811Z,98430.06
2023-03-25T14:50:01.467Z,98428.06
2023-03-25T14:52:38.713Z,98426.09
2023-03-25T14:55:15.334Z,98430.19
2023-03-25T14:57:45.557Z,98434.75
2023-03-25T15:00:28.983Z,98435.78
2023-03-25T15:03:04.945Z,98439.41
2023-03-25T15:05:35.121Z,98428.13
2023-03-25T15:08:16.840Z,98426.84
2023-03-25T15:10:49.812Z,98429.84
2023-03-25T15:13:26.250Z,98435.59
2023-03-25T15:16:03.018Z,98415.69
2023-03-25T15:19:11.985Z,98419.88
2023-03-25T15:22:18.990Z,98433.25
2023-03-25T15:25:00.632Z,98419.66
2023-03-25T15:27:56.842Z,98416.88
2023-03-25T15:31:04.177Z,98404.88
2023-03-25T15:33:57.082Z,98416.06
2023-03-25T15:36:54.822Z,98412.34
2023-03-25T15:39:55.802Z,98405.97
2023-03-25T15:43:02.217Z,98408.09
2023-03-25T15:45:57.181Z,98402.75
2023-03-25T15:49:24.953Z,98398.47
2023-03-25T15:52:13.113Z,98406.63
2023-03-25T15:54:46.332Z,98401.78
2023-03-25T15:57:26.161Z,98411.91
2023-03-25T16:00:11.896Z,98417.25
2023-03-25T16:02:46.974Z,98408.78
2023-03-25T16:05:17.733Z,98402.63
2023-03-25T16:07:47.178Z,98417.00
2023-03-25T16:10:19.272Z,98419.81
2023-03-25T16:12:51.034Z,98409.72
2023-03-25T16:15:26.972Z,98414.69
2023-03-25T16:17:56.470Z,98419.31
2023-03-25T16:20:32.157Z,98422.63
2023-03-25T16:23:03.646Z,98433.28
2023-03-25T16:25:37.834Z,98426.75
2023-03-25T16:28:09.845Z,98427.34
2023-03-25T16:30:43.156Z,98433.22
2023-03-25T16:33:19.211Z,98437.09
2023-03-25T16:35:59.269Z,98450.75
2023-03-25T16:38:28.698Z,98477.78
2023-03-25T16:41:03.056Z,98488.38
2023-03-25T16:43:32.379Z,98496.44
2023-03-25T16:46:05.659Z,98535.91
2023-03-25T16:48:36.963Z,98576.97
2023-03-25T16:51:12.796Z,98582.72
2023-03-25T16:53:42.322Z,98576.34
2023-03-25T16:56:28.995Z,98568.81
2023-03-25T16:59:04.083Z,98580.53
2023-03-25T17:01:42.743Z,98586.00
2023-03-25T17:04:18.881Z,98601.78
2023-03-25T17:06:53.160Z,98643.84
2023-03-25T17:09:25.240Z,98685.66
2023-03-25T17:11:58.463Z,98703.13
2023-03-25T17:14:33.743Z,98702.84
2023-03-25T17:17:12.914Z,98672.34
2023-03-25T17:19:47.950Z,98648.63
2023-03-25T17:22:25.863Z,98642.81
2023-03-25T17:24:58.084Z,98640.75
2023-03-25T17:27:34.248Z,98659.94
2023-03-25T17:30:20.389Z,98663.44
2023-03-25T17:32:53.518Z,98670.00
2023-03-25T17:35:28.424Z,98678.22
2023-03-25T17:37:59.008Z,98678.06
2023-03-25T17:40:29.683Z,98680.94
2023-03-25T17:43:00.473Z,98679.09
2023-03-25T17:45:30.669Z,98676.41
2023-03-25T17:48:01.527Z,98677.75
2023-03-25T17:50:33.232Z,98677.69
2023-03-25T17:53:02.419Z,98688.34
2023-03-25T17:55:31.046Z,98690.19
2023-03-25T17:58:00.148Z,98693.72
2023-03-25T18:00:29.419Z,98691.78
2023-03-25T18:02:59.731Z,98681.03
2023-03-25T18:05:28.692Z,98691.84
2023-03-25T18:07:58.790Z,98683.34
2023-03-25T18:10:30.705Z,98675.97
2023-03-25T18:12:59.967Z,98674.09
2023-03-25T18:15:29.201Z,98673.38
2023-03-25T18:18:01.104Z,98672.00
2023-03-25T18:20:34.110Z,98665.47
2023-03-25T18:23:04.458Z,98674.00
2023-03-25T18:25:37.109Z,98663.88
2023-03-25T18:28:06.850Z,98669.16
2023-03-25T18:30:45.014Z,98679.94
2023-03-25T18:33:16.953Z,98686.06
2023-03-25T18:35:48.070Z,98702.31
2023-03-25T18:38:22.365Z,98704.84
2023-03-25T18:40:53.970Z,98707.34
2023-03-25T18:43:26.639Z,98717.84
2023-03-25T18:45:56.577Z,98720.38
2023-03-25T18:48:28.686Z,98709.94
2023-03-25T18:51:01.645Z,98713.00
2023-03-25T18:53:33.188Z,98706.66
2023-03-25T18:56:04.511Z,98701.44
2023-03-25T18:58:36.045Z,98687.13
2023-03-25T19:01:09.790Z,98678.06
2023-03-25T19:03:41.107Z,98692.13
2023-03-25T19:06:14.721Z,98692.16
2023-03-25T19:08:46.687Z,98689.72
2023-03-25T19:11:21.748Z,98696.88
2023-03-25T19:13:53.596Z,98694.34
2023-03-25T19:16:24.546Z,98661.00
2023-03-25T19:18:57.262Z,98683.03
2023-03-25T19:21:26.812Z,98694.59
2023-03-25T19:23:56.820Z,98674.50
2023-03-25T19:26:27.696Z,98688.78
2023-03-25T19:28:57.037Z,98681.34
2023-03-25T19:31:27.071Z,98679.13
2023-03-25T19:33:58.687Z,98667.81
2023-03-25T19:36:28.812Z,98682.94
2023-03-25T19:39:06.051Z,98668.06
2023-03-25T19:41:42.675Z,98663.06
2023-03-25T19:44:12.868Z,98671.59
2023-03-25T19:46:56.147Z,98662.00
2023-03-25T19:49:39.272Z,98653.50
2023-03-25T19:52:10.481Z,98642.50
2023-03-25T19:54:41.735Z,98641.13
2023-03-25T19:57:12.523Z,98641.13
2023-03-25T19:59:44.962Z,98650.53
2023-03-25T20:02:16.088Z,98657.09
2023-03-25T20:04:47.553Z,98647.41
2023-03-25T20:07:19.305Z,98644.59
2023-03-25T20:09:49.732Z,98630.22
2023-03-25T20:12:22.442Z,98647.53
2023-03-25T20:14:53.574Z,98633.72
2023-03-25T20:17:25.397Z,98633.34
2023-03-25T20:19:58.683Z,98640.72
2023-03-25T20:22:29.055Z,98647.78
2023-03-25T20:25:00.724Z,98648.81
2023-03-25T20:27:32.274Z,98646.06
2023-03-25T20:30:02.837Z,98642.78
2023-03-25T20:32:40.754Z,98646.44
2023-03-25T20:35:16.400Z,98649.56
2023-03-25T20:37:49.155Z,98647.69
2023-03-25T20:40:33.785Z,98656.03
2023-03-25T20:43:14.957Z,98659.94
2023-03-25T20:45:47.016Z,98646.53
2023-03-25T20:48:17.102Z,98648.22
2023-03-25T20:50:48.588Z,98648.31
2023-03-25T20:53:17.940Z,98642.03
2023-03-25T20:55:48.500Z,98641.81
2023-03-25T20:58:18.250Z,98643.47
2023-03-25T21:00:47.594Z,98642.13
2023-03-25T21:03:18.615Z,98645.50
2023-03-25T21:05:50.098Z,98650.47
2023-03-25T21:08:20.205Z,98654.63
2023-03-25T21:10:50.289Z,98653.28
2023-03-25T21:13:19.926Z,98632.34
2023-03-25T21:15:49.748Z,98669.03
2023-03-25T21:18:19.018Z,98646.16
2023-03-25T21:20:52.852Z,98653.91
2023-03-25T21:23:27.922Z,98641.28
2023-03-25T21:26:00.351Z,98648.69
2023-03-25T21:28:30.444Z,98654.22
2023-03-25T21:31:04.757Z,98659.72
2023-03-25T21:33:34.528Z,98651.44
2023-03-25T21:36:06.608Z,98653.38
2023-03-25T21:38:36.389Z,98664.38
2023-03-25T21:41:07.687Z,98660.53
2023-03-25T21:43:39.865Z,98660.53
2023-03-25T21:46:09.055Z,98661.38
2023-03-25T21:48:39.544Z,98669.63
2023-03-25T21:51:14.374Z,98638.53
2023-03-25T21:53:45.464Z,98655.56
2023-03-25T21:56:17.989Z,98658.63
2023-03-25T21:58:48.242Z,98655.03
2023-03-25T22:01:23.095Z,98672.38
2023-03-25T22:03:55.366Z,98665.53
2023-03-25T22:06:28.090Z,98649.00
2023-03-25T22:08:57.213Z,98650.09
2023-03-25T22:11:29.673Z,98645.72
2023-03-25T22:13:59.006Z,98643.50
2023-03-25T22:16:27.929Z,98636.88
2023-03-25T22:18:56.416Z,98655.88
2023-03-25T22:21:30.195Z,98637.38
2023-03-25T22:24:01.423Z,98637.91
2023-03-25T22:26:32.439Z,98653.34
2023-03-25T22:29:03.686Z,98646.44
2023-03-25T22:31:39.635Z,98633.19
2023-03-25T22:34:15.264Z,98642.78
2023-03-25T22:36:50.476Z,98633.97
2023-03-25T22:39:20.485Z,98646.59
2023-03-25T22:41:49.193Z,98635.84
2023-03-25T22:44:18.280Z,98642.97
2023-03-25T22:46:47.017Z,98628.63
2023-03-25T22:49:16.104Z,98639.31
2023-03-25T22:51:46.082Z,98641.50
2023-03-25T22:54:14.644Z,98644.19
2023-03-25T22:56:43.782Z,98640.84
2023-03-25T22:59:14.179Z,98641.66
2023-03-25T23:01:43.761Z,98642.19
2023-03-25T23:04:12.710Z,98634.75
2023-03-25T23:06:41.910Z,98621.81
2023-03-25T23:09:12.315Z,98630.91
2023-03-25T23:11:40.825Z,98633.66
2023-03-25T23:14:13.334Z,98634.75
2023-03-25T23:16:42.403Z,98644.66
2023-03-25T23:19:11.034Z,98627.63
2023-03-25T23:21:40.604Z,98622.09
2023-03-25T23:24:11.841Z,98623.22
2023-03-25T23:26:42.126Z,98624.03
2023-03-25T23:29:13.313Z,98632.31
2023-03-25T23:31:44.311Z,98616.28
2023-03-25T23:34:15.084Z,98613.47
2023-03-25T23:36:45.394Z,98616.44
2023-03-25T23:39:20.061Z,98613.94
2023-03-25T23:41:48.571Z,98609.47
2023-03-25T23:44:17.136Z,98598.69
2023-03-25T23:46:46.453Z,98598.94
2023-03-25T23:49:17.924Z,98597.22
2023-03-25T23:51:47.110Z,98606.81
2023-03-25T23:54:18.056Z,98598.25
2023-03-25T23:56:46.481Z,98595.75
2023-03-25T23:59:14.893Z,98608.38
